首页
METAR-TAF:

METAR-TAF

机场 :

Falls International Airport

國際瀑布城, 明尼蘇達州, 美国

纬度: 48-33-43N, 经度: 093-23-52W, 海拔: 361米

当前天气观测

该预报发布于16分钟前的22:54 UTC
风速5节,风向西
温度 24°C
湿度 38%
气压 1016 hPa
能見度: 16.1公里
天空无云

METAR: KINL 142254Z AUTO 27005KT 10SM CLR 24/09 A2999 RMK AO2 SLP157 T02440089

时间: 18:10 (23:10 UTC)

预报

该预报发布于5小时和34分钟前的17:36 UTC
预报有效从14日的 18点(UTC)到 15日的 18点(UTC)
风速5节,风向西转西南
能見度: 10公里
散云层高于5000英尺
短暂存在
从 14日的 18点(UTC)到 14日的 20点(UTC)
多云层高于5000英尺
从 15日的 1400点(UTC)
风速7节,风向南转南东
能見度: 10公里
多云层高于6000英尺

TAF: KINL 141736Z 1418/1518 24005KT P6SM SCT050 TEMPO 1418/1420 BKN050 FM151400 16007KT P6SM BKN060

超过4000个机场的气象观测和天气预报(METAR&TAF报告)。

可查询的气象台以黄色和红色小点在地图上表示。

将鼠标移到小点上方,可查看气象台名称。

然后点击查看天气观测和预报。

如需切换地图:点击带黑十字的绿色按钮放大地图;点击带横线的绿色按钮缩小地图;或者点击绿色箭头查看邻近地区的地图。


METAR-TAF: